Time;durP1;ratioP1;P1;durP2;ratioP2;P2;SDS_P1;SDS_P2;PMS_P1;PMS_P2;Temp;Humidity;BMP_temperature;BMP_pressure;BME280_temperature;BME280_humidity;BME280_pressure;Samples;Min_cycle;Max_cycle;Signal;HPM_P1;HPM_P2
2022/06/22 00:02:00;;;;;;;0.90;0.40;;;14.90;76.30;;;;;;4193165;28;20052;-66
2022/06/22 00:04:03;;;;;;;0.47;0.47;;;14.90;76.40;;;;;;4175747;28;20575;-73
2022/06/22 00:06:04;;;;;;;3.80;0.43;;;14.90;76.40;;;;;;4176729;28;20041;-66
2022/06/22 00:08:11;;;;;;;3.17;0.98;;;14.90;76.40;;;;;;4175521;28;20040;-66
2022/06/22 00:10:59;;;;;;;0.87;0.27;;;14.90;76.60;;;;;;4176281;28;20025;-68
2022/06/22 00:13:01;;;;;;;0.87;0.33;;;14.90;77.00;;;;;;4171532;28;20178;-66
2022/06/22 00:15:30;;;;;;;1.50;0.57;;;14.90;76.50;;;;;;4176327;28;20041;-66
2022/06/22 00:17:38;;;;;;;1.42;0.30;;;14.90;77.10;;;;;;4182104;28;20054;-65
2022/06/22 00:19:42;;;;;;;2.93;0.50;;;14.90;76.80;;;;;;4192701;28;20456;-68
2022/06/22 00:21:44;;;;;;;1.87;0.30;;;14.90;76.50;;;;;;4191287;28;20784;-67
2022/06/22 00:23:48;;;;;;;1.10;0.30;;;14.90;76.60;;;;;;4192791;28;20109;-65
2022/06/22 00:25:50;;;;;;;4.78;0.38;;;14.90;76.50;;;;;;4191391;28;20032;-69
2022/06/22 00:27:51;;;;;;;1.53;0.40;;;14.90;76.70;;;;;;4194466;28;20062;-73
2022/06/22 00:30:10;;;;;;;1.60;0.53;;;14.90;76.90;;;;;;4208147;28;20070;-68
2022/06/22 00:32:32;;;;;;;3.73;0.60;;;14.80;77.50;;;;;;4209213;28;20085;-68
2022/06/22 00:34:34;;;;;;;2.77;0.50;;;14.70;78.60;;;;;;4207804;28;20125;-68
2022/06/22 00:36:42;;;;;;;3.10;0.93;;;14.60;78.00;;;;;;4209120;28;20419;-70
2022/06/22 00:38:44;;;;;;;2.60;0.67;;;14.50;78.10;;;;;;4206186;28;20119;-70
2022/06/22 00:40:50;;;;;;;1.73;0.60;;;14.40;78.70;;;;;;4208440;28;20101;-68
2022/06/22 00:42:51;;;;;;;0.70;0.57;;;14.40;79.00;;;;;;4207328;28;20067;-67
2022/06/22 00:45:09;;;;;;;2.17;0.77;;;14.30;79.50;;;;;;4208948;28;20024;-68
2022/06/22 00:47:27;;;;;;;2.93;0.50;;;14.20;79.40;;;;;;4205958;28;21418;-69
2022/06/22 00:49:29;;;;;;;1.87;0.50;;;14.10;80.00;;;;;;4209454;28;20028;-69
2022/06/22 00:51:36;;;;;;;1.47;0.67;;;14.10;80.10;;;;;;4207579;28;20077;-71
2022/06/22 00:53:41;;;;;;;3.23;0.50;;;14.00;80.20;;;;;;4209305;28;20043;-70
2022/06/22 00:56:07;;;;;;;3.27;0.63;;;14.00;80.30;;;;;;4204674;28;20475;-68
2022/06/22 00:58:08;;;;;;;1.40;0.50;;;14.00;80.30;;;;;;4192446;28;20094;-66
2022/06/22 01:00:31;;;;;;;1.20;0.50;;;14.00;80.30;;;;;;4190788;28;20033;-74
2022/06/22 01:03:05;;;;;;;2.73;0.60;;;13.90;81.10;;;;;;4191780;28;20450;-74
2022/06/22 01:05:21;;;;;;;0.80;0.57;;;13.90;81.70;;;;;;4183000;28;20040;-75
2022/06/22 01:07:43;;;;;;;2.10;0.57;;;13.90;80.80;;;;;;4192184;28;20036;-66
2022/06/22 01:09:51;;;;;;;4.17;0.40;;;13.90;81.40;;;;;;4190483;28;20032;-69
2022/06/22 01:12:16;;;;;;;0.93;0.50;;;13.90;80.70;;;;;;4191399;28;20481;-72
2022/06/22 01:14:27;;;;;;;1.93;0.70;;;13.90;80.80;;;;;;4190607;28;20048;-70
2022/06/22 01:16:35;;;;;;;1.33;0.63;;;13.90;81.00;;;;;;4191471;28;20121;-66
2022/06/22 01:18:46;;;;;;;1.37;0.60;;;13.80;81.00;;;;;;4190663;28;20577;-68
2022/06/22 01:20:57;;;;;;;3.53;0.80;;;13.90;81.20;;;;;;4191322;28;20094;-68
2022/06/22 01:23:10;;;;;;;;;;;13.90;81.50;;;;;;4195806;28;20093;-65
2022/06/22 01:25:23;;;;;;;1.67;0.60;;;13.80;83.10;;;;;;4208508;28;20350;-68
2022/06/22 01:27:32;;;;;;;3.03;0.90;;;13.80;81.50;;;;;;4207392;28;20043;-70
2022/06/22 01:29:34;;;;;;;1.00;0.40;;;13.80;81.80;;;;;;4202024;28;20028;-71
2022/06/22 01:31:35;;;;;;;9.50;1.57;;;13.80;81.80;;;;;;4190213;28;20063;-65
2022/06/22 01:33:45;;;;;;;0.60;0.30;;;13.80;82.00;;;;;;4191685;28;20098;-70
2022/06/22 01:35:55;;;;;;;1.55;0.70;;;13.80;82.10;;;;;;4190634;28;20480;-73
2022/06/22 01:37:57;;;;;;;0.85;0.60;;;13.80;82.30;;;;;;4191189;28;20033;-67
2022/06/22 01:40:13;;;;;;;0.83;0.50;;;13.80;82.50;;;;;;4190134;28;20036;-66
2022/06/22 01:42:17;;;;;;;1.03;0.70;;;13.70;83.10;;;;;;4191135;28;20484;-70
2022/06/22 01:44:44;;;;;;;1.23;0.50;;;13.70;82.90;;;;;;4190335;28;20049;-66
2022/06/22 01:47:27;;;;;;;3.80;0.50;;;13.60;83.70;;;;;;4191293;28;20466;-66
2022/06/22 01:49:38;;;;;;;0.83;0.50;;;13.60;83.80;;;;;;4189769;28;20966;-69
2022/06/22 01:51:45;;;;;;;1.50;0.40;;;13.50;83.20;;;;;;4202148;28;20480;-66
2022/06/22 01:54:10;;;;;;;2.40;0.40;;;13.50;83.30;;;;;;4207361;28;20097;-67
2022/06/22 01:56:34;;;;;;;2.67;0.47;;;13.50;84.30;;;;;;4206791;28;20430;-66
2022/06/22 01:58:44;;;;;;;2.37;0.80;;;13.50;84.20;;;;;;4208047;28;20043;-69
2022/06/22 02:00:58;;;;;;;0.73;0.40;;;13.50;83.50;;;;;;4206742;28;20081;-67
2022/06/22 02:03:12;;;;;;;1.60;0.63;;;13.50;84.40;;;;;;4208073;28;20032;-68
2022/06/22 02:05:26;;;;;;;1.97;0.70;;;13.60;85.00;;;;;;4203804;28;20199;-70
2022/06/22 02:07:44;;;;;;;0.90;0.70;;;13.60;84.50;;;;;;4190672;28;20094;-66
2022/06/22 02:10:21;;;;;;;2.13;0.53;;;13.60;84.80;;;;;;4189944;28;20016;-67
2022/06/22 02:12:28;;;;;;;2.77;1.03;;;13.60;85.00;;;;;;4190934;28;20129;-65
2022/06/22 02:14:31;;;;;;;2.93;0.60;;;13.60;84.60;;;;;;4188789;28;20067;-64
2022/06/22 02:16:39;;;;;;;1.33;0.37;;;13.60;84.50;;;;;;4191031;28;20032;-71
2022/06/22 02:19:12;;;;;;;1.13;0.80;;;13.60;84.60;;;;;;4195151;28;20097;-65
2022/06/22 02:21:26;;;;;;;5.07;0.67;;;13.60;85.50;;;;;;4207147;28;20048;-70
2022/06/22 02:23:36;;;;;;;0.63;0.50;;;13.70;84.90;;;;;;4206270;28;20476;-65
2022/06/22 02:25:47;;;;;;;2.95;0.77;;;13.70;84.90;;;;;;4197837;28;20983;-70
2022/06/22 02:27:48;;;;;;;0.93;0.40;;;13.70;84.80;;;;;;4189553;28;20078;-77
2022/06/22 02:29:56;;;;;;;0.70;0.60;;;13.70;84.80;;;;;;4190416;28;20473;-69
2022/06/22 02:32:01;;;;;;;3.27;0.60;;;13.70;85.00;;;;;;4199345;28;20454;-73
2022/06/22 02:34:03;;;;;;;4.70;0.50;;;13.70;85.00;;;;;;4207458;28;20036;-73
2022/06/22 02:36:04;;;;;;;1.37;0.60;;;13.80;84.90;;;;;;4206282;28;20032;-69
2022/06/22 02:38:09;;;;;;;1.03;0.50;;;13.80;85.00;;;;;;4207695;28;20098;-73
2022/06/22 02:40:19;;;;;;;0.93;0.43;;;13.80;85.10;;;;;;4205926;28;20039;-75
2022/06/22 02:44:42;;;;;;;2.00;0.82;;;14.00;84.90;;;;;;4203649;28;20040;-65
2022/06/22 02:46:45;;;;;;;1.03;0.80;;;14.10;84.50;;;;;;4190197;28;21058;-68
2022/06/22 02:48:54;;;;;;;2.17;0.70;;;14.30;84.20;;;;;;4189211;28;20048;-65
2022/06/22 02:51:24;;;;;;;0.73;0.47;;;14.50;83.90;;;;;;4190501;28;20078;-66
2022/06/22 02:53:33;;;;;;;1.45;0.55;;;14.70;83.90;;;;;;4189243;28;20606;-66
2022/06/22 02:55:36;;;;;;;2.00;0.50;;;14.80;83.20;;;;;;4190468;28;20058;-68
2022/06/22 02:57:37;;;;;;;3.07;0.80;;;15.00;82.90;;;;;;4188683;28;20016;-66
2022/06/22 02:59:39;;;;;;;1.17;0.50;;;15.20;82.50;;;;;;4199095;28;20073;-67
2022/06/22 03:01:40;;;;;;;0.83;0.27;;;15.50;81.90;;;;;;4205915;28;20101;-69
2022/06/22 03:03:54;;;;;;;1.50;0.50;;;15.70;81.50;;;;;;4207339;28;20105;-66
2022/06/22 03:05:57;;;;;;;2.50;0.70;;;15.90;81.20;;;;;;4205597;28;20028;-67
2022/06/22 03:08:00;;;;;;;1.98;0.75;;;16.00;80.80;;;;;;4206624;28;20481;-66
2022/06/22 03:10:04;;;;;;;2.83;0.47;;;16.40;80.50;;;;;;4205649;28;20821;-68
2022/06/22 03:12:06;;;;;;;2.72;0.55;;;16.80;79.80;;;;;;4207220;28;20044;-65
2022/06/22 03:14:26;;;;;;;0.95;0.57;;;17.20;78.80;;;;;;4205683;28;20124;-67
2022/06/22 03:16:33;;;;;;;2.03;0.67;;;17.60;78.20;;;;;;4207220;28;20089;-66
2022/06/22 03:18:40;;;;;;;4.13;0.55;;;17.90;77.30;;;;;;4205668;28;20441;-66
2022/06/22 03:20:52;;;;;;;2.65;0.65;;;18.20;77.00;;;;;;4207303;28;20032;-66
2022/06/22 03:22:57;;;;;;;1.27;0.75;;;18.60;76.20;;;;;;4205602;28;20134;-70
2022/06/22 03:25:27;;;;;;;1.33;0.70;;;18.80;75.50;;;;;;4205770;28;20023;-71
2022/06/22 03:27:38;;;;;;;1.92;0.82;;;18.90;74.90;;;;;;4192174;28;20535;-66
2022/06/22 03:29:45;;;;;;;1.48;0.55;;;19.20;74.90;;;;;;4193968;28;20033;-67
2022/06/22 03:31:58;;;;;;;1.25;0.60;;;19.60;74.30;;;;;;4192020;28;20029;-68
2022/06/22 03:34:22;;;;;;;2.72;0.57;;;20.00;73.10;;;;;;4193305;28;20138;-67
2022/06/22 03:36:41;;;;;;;1.60;0.80;;;20.40;72.50;;;;;;4192370;28;20097;-67
2022/06/22 03:38:48;;;;;;;0.73;0.60;;;20.90;71.10;;;;;;4193021;28;20032;-71
2022/06/22 03:41:00;;;;;;;1.33;1.05;;;21.10;70.90;;;;;;4192604;28;20037;-65
2022/06/22 03:43:27;;;;;;;0.50;0.45;;;21.60;70.50;;;;;;4193527;28;20468;-68
2022/06/22 03:45:34;;;;;;;2.30;0.43;;;21.90;68.70;;;;;;4172487;28;20093;-67
2022/06/22 03:47:45;;;;;;;8.80;0.57;;;22.40;69.30;;;;;;4193211;28;20076;-68
2022/06/22 03:49:56;;;;;;;2.78;0.55;;;22.60;67.80;;;;;;4192105;28;20116;-66
2022/06/22 03:52:13;;;;;;;3.45;0.70;;;22.40;68.30;;;;;;4196885;28;20082;-70
2022/06/22 03:54:27;;;;;;;3.15;0.73;;;22.70;68.10;;;;;;4182241;28;20041;-65
2022/06/22 03:56:35;;;;;;;1.70;0.65;;;23.40;67.20;;;;;;4192093;28;20048;-64
2022/06/22 03:58:38;;;;;;;6.32;0.60;;;23.90;66.00;;;;;;4190953;28;20024;-72
2022/06/22 04:00:42;;;;;;;3.35;0.80;;;23.80;65.80;;;;;;4192177;28;20366;-64
2022/06/22 04:02:44;;;;;;;1.73;0.80;;;23.60;65.80;;;;;;4191992;28;20105;-71
2022/06/22 04:04:50;;;;;;;2.03;0.75;;;23.40;65.90;;;;;;4193241;28;20045;-66
2022/06/22 04:06:54;;;;;;;2.38;0.60;;;23.60;65.50;;;;;;4191288;28;20029;-66
2022/06/22 04:08:55;;;;;;;2.05;0.80;;;23.30;65.30;;;;;;4192536;28;20036;-69
2022/06/22 04:11:15;;;;;;;2.17;0.50;;;23.30;65.50;;;;;;4190677;28;20028;-70
2022/06/22 04:13:23;;;;;;;1.95;0.57;;;23.40;64.80;;;;;;4192278;28;20024;-66
2022/06/22 04:15:32;;;;;;;2.72;0.50;;;23.30;64.70;;;;;;4191349;28;20098;-68
2022/06/22 04:17:44;;;;;;;3.03;0.60;;;23.80;64.60;;;;;;4192984;28;20044;-66
2022/06/22 04:19:54;;;;;;;2.33;0.57;;;24.50;63.80;;;;;;4191040;28;20032;-67
2022/06/22 04:22:04;;;;;;;2.80;0.50;;;25.00;63.10;;;;;;4192468;28;20078;-65
2022/06/22 04:24:11;;;;;;;1.90;0.47;;;25.40;62.40;;;;;;4194331;28;20778;-67
2022/06/22 04:26:26;;;;;;;1.13;0.60;;;25.50;62.30;;;;;;4198670;28;20111;-65
2022/06/22 04:28:30;;;;;;;1.75;0.60;;;25.70;61.70;;;;;;4199335;28;20048;-76
2022/06/22 04:30:35;;;;;;;4.25;0.60;;;25.20;62.10;;;;;;4192447;28;20036;-66
2022/06/22 04:32:51;;;;;;;3.60;0.40;;;25.40;62.20;;;;;;4182137;28;20526;-67
2022/06/22 04:35:32;;;;;;;3.05;0.50;;;25.70;61.80;;;;;;4198753;28;20108;-69
2022/06/22 04:37:57;;;;;;;4.38;0.35;;;25.40;59.80;;;;;;4183785;28;20652;-65
2022/06/22 04:40:17;;;;;;;0.57;0.40;;;24.30;61.70;;;;;;4193519;28;21969;-66
2022/06/22 04:42:18;;;;;;;1.30;0.68;;;23.40;63.10;;;;;;4194459;28;20093;-66
2022/06/22 04:44:26;;;;;;;3.08;0.60;;;22.70;64.90;;;;;;4197718;28;20094;-68
2022/06/22 04:46:40;;;;;;;1.40;0.40;;;22.60;65.30;;;;;;4195333;28;20056;-68
2022/06/22 04:48:49;;;;;;;1.33;0.40;;;22.30;65.80;;;;;;4191323;28;20041;-62
2022/06/22 04:50:57;;;;;;;3.80;0.68;;;22.70;65.70;;;;;;4191718;28;20078;-66
2022/06/22 04:52:59;;;;;;;2.47;0.75;;;22.70;65.70;;;;;;4191195;28;20469;-63
2022/06/22 04:55:03;;;;;;;4.47;0.40;;;23.00;65.60;;;;;;4191261;28;20044;-63
2022/06/22 04:57:19;;;;;;;2.42;0.50;;;23.40;65.10;;;;;;4199028;28;20094;-67
2022/06/22 04:59:21;;;;;;;4.60;0.52;;;23.10;65.10;;;;;;4192540;28;20052;-68
2022/06/22 05:01:30;;;;;;;0.93;0.70;;;23.10;65.30;;;;;;4191137;28;20041;-62
2022/06/22 05:03:33;;;;;;;2.90;0.60;;;23.30;65.30;;;;;;4188919;28;20041;-65
2022/06/22 05:05:35;;;;;;;4.22;0.60;;;23.60;65.20;;;;;;4190845;28;20146;-65
2022/06/22 05:08:02;;;;;;;3.40;0.68;;;24.20;64.40;;;;;;4189884;28;20678;-65
2022/06/22 05:10:09;;;;;;;3.17;0.77;;;24.30;63.90;;;;;;4191002;28;20090;-65
2022/06/22 05:12:16;;;;;;;2.88;0.80;;;24.60;63.60;;;;;;4190252;28;20881;-65
2022/06/22 05:14:22;;;;;;;1.73;0.60;;;24.50;63.50;;;;;;4189684;28;20044;-70
2022/06/22 05:16:27;;;;;;;3.75;0.77;;;24.10;63.90;;;;;;4187737;28;20102;-65
2022/06/22 05:18:32;;;;;;;1.85;0.68;;;24.30;63.90;;;;;;4191396;28;20040;-69
2022/06/22 05:20:42;;;;;;;4.43;0.82;;;24.00;63.70;;;;;;4189670;28;20040;-68
2022/06/22 05:22:44;;;;;;;1.63;0.50;;;23.80;64.30;;;;;;4191564;28;20068;-67
2022/06/22 05:24:50;;;;;;;3.50;0.80;;;23.70;64.40;;;;;;4187176;28;20032;-63
2022/06/22 05:26:55;;;;;;;5.40;0.90;;;23.80;64.50;;;;;;4190814;28;20036;-63
2022/06/22 05:29:09;;;;;;;1.95;0.50;;;23.60;64.60;;;;;;4189560;28;20024;-65
2022/06/22 05:31:15;;;;;;;1.30;0.45;;;23.40;65.20;;;;;;4191368;28;20439;-66
2022/06/22 05:33:19;;;;;;;3.17;0.60;;;23.70;65.00;;;;;;4189797;28;20032;-62
2022/06/22 05:35:36;;;;;;;2.63;0.70;;;23.40;64.90;;;;;;4191104;28;20029;-62
2022/06/22 05:37:42;;;;;;;2.88;0.60;;;23.00;65.60;;;;;;4189709;28;20059;-70
2022/06/22 05:39:44;;;;;;;0.98;0.68;;;23.10;65.60;;;;;;4190959;28;20081;-64
2022/06/22 05:41:47;;;;;;;1.75;0.57;;;22.90;65.70;;;;;;4189018;28;20106;-70
2022/06/22 05:43:49;;;;;;;1.35;0.50;;;22.70;66.20;;;;;;4190873;28;20303;-64
2022/06/22 05:45:57;;;;;;;3.90;0.65;;;22.40;66.70;;;;;;4188894;28;20598;-63
2022/06/22 05:47:58;;;;;;;4.13;0.47;;;22.50;66.70;;;;;;4191266;28;20040;-65
2022/06/22 05:50:19;;;;;;;2.45;0.70;;;22.30;67.00;;;;;;4189339;28;20098;-65
2022/06/22 05:52:47;;;;;;;3.75;0.70;;;22.40;67.30;;;;;;4190706;28;20721;-62
2022/06/22 05:54:59;;;;;;;2.15;0.40;;;22.60;67.20;;;;;;4189018;28;20044;-63
2022/06/22 05:57:22;;;;;;;1.25;0.40;;;22.80;66.60;;;;;;4190152;28;20056;-62
2022/06/22 05:59:36;;;;;;;2.60;0.60;;;22.70;67.50;;;;;;4189512;28;20551;-62
2022/06/22 06:02:03;;;;;;;3.15;0.60;;;23.00;67.20;;;;;;4190349;28;20057;-62
2022/06/22 06:04:38;;;;;;;1.92;0.70;;;23.10;67.00;;;;;;4189302;28;20082;-67
2022/06/22 06:06:41;;;;;;;1.60;0.63;;;23.30;67.20;;;;;;4190251;28;20058;-65
2022/06/22 06:08:49;;;;;;;5.93;0.60;;;23.80;66.10;;;;;;4189284;28;20036;-63
2022/06/22 06:10:51;;;;;;;4.43;0.88;;;23.90;65.70;;;;;;4189912;28;20028;-63
2022/06/22 06:13:16;;;;;;;2.88;0.57;;;23.70;65.70;;;;;;4189584;28;20082;-63
2022/06/22 06:15:17;;;;;;;4.65;1.92;;;23.30;66.60;;;;;;4189636;28;20110;-68
2022/06/22 06:17:33;;;;;;;3.05;0.75;;;23.30;67.40;;;;;;4189559;28;20037;-72
2022/06/22 06:19:39;;;;;;;2.42;0.60;;;23.00;67.00;;;;;;4189540;28;20032;-68
2022/06/22 06:21:40;;;;;;;2.70;0.75;;;22.80;67.70;;;;;;4173845;28;20037;-65
2022/06/22 06:24:11;;;;;;;8.90;1.42;;;22.80;67.90;;;;;;4173145;28;20493;-65
2022/06/22 06:29:00;;;;;;;1.80;0.60;;;22.90;67.70;;;;;;4172656;28;20481;-62
2022/06/22 06:31:12;;;;;;;4.13;0.52;;;22.90;68.00;;;;;;4173898;28;20086;-63
2022/06/22 06:33:32;;;;;;;2.15;1.15;;;22.90;67.80;;;;;;4172044;28;20140;-66
2022/06/22 06:35:42;;;;;;;2.47;0.68;;;23.00;67.30;;;;;;4173485;28;20258;-64
2022/06/22 06:37:47;;;;;;;0.50;0.47;;;23.10;67.00;;;;;;4172612;28;20078;-68
2022/06/22 06:39:52;;;;;;;1.75;0.63;;;22.50;66.90;;;;;;4173392;28;20436;-64
2022/06/22 06:42:03;;;;;;;1.98;0.50;;;22.30;67.50;;;;;;4172308;28;20091;-67
2022/06/22 06:44:21;;;;;;;3.40;0.60;;;22.20;68.00;;;;;;4173513;28;20040;-65
2022/06/22 06:46:38;;;;;;;1.73;0.47;;;22.30;68.30;;;;;;4172851;28;20033;-63
2022/06/22 06:48:43;;;;;;;3.22;0.70;;;22.30;67.40;;;;;;4174259;28;20090;-64
2022/06/22 06:50:50;;;;;;;3.08;0.65;;;22.20;67.50;;;;;;4172040;28;20025;-65
2022/06/22 06:53:22;;;;;;;3.25;0.85;;;22.30;67.70;;;;;;4173811;28;20074;-65
2022/06/22 06:55:48;;;;;;;1.52;0.70;;;22.40;68.30;;;;;;4172651;28;20099;-67
2022/06/22 06:58:19;;;;;;;3.30;0.63;;;22.20;67.40;;;;;;4173427;28;20083;-63
2022/06/22 07:00:20;;;;;;;1.70;0.80;;;21.90;68.00;;;;;;4173456;28;20075;-63
2022/06/22 07:02:30;;;;;;;2.35;0.90;;;21.90;67.90;;;;;;4178655;28;20069;-69
2022/06/22 07:04:35;;;;;;;3.85;1.13;;;22.00;68.10;;;;;;4177507;28;20028;-62
2022/06/22 07:06:38;;;;;;;4.45;0.98;;;21.80;67.60;;;;;;4179681;28;20040;-63
2022/06/22 07:09:03;;;;;;;4.03;0.75;;;22.00;67.60;;;;;;4177867;28;20045;-64
2022/06/22 07:11:12;;;;;;;1.73;0.70;;;22.30;67.40;;;;;;4178565;28;20028;-65
2022/06/22 07:13:22;;;;;;;4.25;0.93;;;22.50;67.20;;;;;;4177624;28;20095;-62
2022/06/22 07:15:39;;;;;;;8.25;1.38;;;22.60;67.20;;;;;;4178633;28;20107;-62
2022/06/22 07:17:41;;;;;;;1.63;1.10;;;22.50;67.40;;;;;;4178308;28;20068;-62
2022/06/22 07:19:48;;;;;;;1.08;0.77;;;22.30;66.70;;;;;;4178140;28;20041;-63
2022/06/22 07:22:00;;;;;;;5.00;1.48;;;22.20;66.30;;;;;;4177838;28;20099;-69
2022/06/22 07:24:06;;;;;;;1.35;0.70;;;22.30;66.50;;;;;;4177555;28;20041;-65
2022/06/22 07:26:10;;;;;;;2.78;0.77;;;22.50;66.70;;;;;;4177319;28;20020;-63
2022/06/22 07:28:34;;;;;;;1.48;0.88;;;22.30;67.30;;;;;;4178992;28;20481;-67
2022/06/22 07:30:40;;;;;;;4.43;1.05;;;22.40;67.60;;;;;;4178268;28;20032;-66
2022/06/22 07:32:55;;;;;;;14.07;1.67;;;22.40;66.80;;;;;;4178756;28;20159;-63
2022/06/22 07:35:14;;;;;;;5.18;0.75;;;21.90;67.00;;;;;;4177550;28;20126;-66
2022/06/22 07:37:22;;;;;;;3.17;0.77;;;21.50;68.30;;;;;;4178389;28;20025;-68
2022/06/22 07:39:40;;;;;;;3.83;1.23;;;21.60;68.50;;;;;;4176717;28;20489;-64
2022/06/22 07:41:42;;;;;;;1.80;0.63;;;21.60;68.60;;;;;;4178410;28;20636;-66
2022/06/22 07:43:45;;;;;;;4.78;0.95;;;21.60;68.50;;;;;;4178158;28;20086;-63
2022/06/22 07:45:46;;;;;;;5.05;1.08;;;21.80;68.60;;;;;;4178832;28;20045;-63
2022/06/22 07:47:57;;;;;;;8.18;1.00;;;21.70;68.30;;;;;;4177661;28;20045;-65
2022/06/22 07:50:07;;;;;;;2.67;1.13;;;21.40;68.50;;;;;;4178153;28;20033;-64
2022/06/22 07:52:14;;;;;;;2.78;1.00;;;21.40;69.00;;;;;;4177982;28;20025;-63
2022/06/22 07:54:32;;;;;;;6.85;1.45;;;21.50;68.90;;;;;;4178891;28;20033;-63
2022/06/22 07:57:10;;;;;;;3.25;1.00;;;21.50;68.70;;;;;;4176456;28;20045;-64
2022/06/22 07:59:17;;;;;;;9.50;1.30;;;21.40;69.10;;;;;;4177936;28;20090;-63
2022/06/22 08:01:26;;;;;;;1.08;0.73;;;21.30;69.70;;;;;;4178354;28;20402;-64
2022/06/22 08:03:55;;;;;;;2.13;0.80;;;21.60;69.40;;;;;;4177789;28;20045;-64
2022/06/22 08:05:59;;;;;;;1.83;1.13;;;21.70;69.00;;;;;;4177303;28;20383;-67
2022/06/22 08:08:10;;;;;;;1.60;1.08;;;21.90;68.70;;;;;;4175699;28;20075;-64
2022/06/22 08:10:21;;;;;;;6.55;1.40;;;22.10;68.70;;;;;;4177263;28;20037;-62
2022/06/22 08:12:53;;;;;;;5.13;2.03;;;21.80;68.40;;;;;;4174254;28;20373;-65
2022/06/22 08:14:55;;;;;;;3.15;0.90;;;21.60;69.20;;;;;;4170520;28;20140;-63
2022/06/22 08:16:58;;;;;;;21.10;3.97;;;21.60;69.60;;;;;;4174905;28;20041;-61
2022/06/22 08:19:01;;;;;;;4.13;1.33;;;21.60;69.10;;;;;;4175767;28;20102;-65
2022/06/22 08:21:02;;;;;;;10.55;2.25;;;21.60;69.10;;;;;;4174554;28;20021;-62
2022/06/22 08:23:05;;;;;;;10.73;2.13;;;21.30;69.20;;;;;;4175323;28;21063;-73
2022/06/22 08:25:07;;;;;;;2.08;1.45;;;21.30;69.70;;;;;;4187054;28;20029;-65
2022/06/22 08:27:15;;;;;;;5.43;1.35;;;21.50;69.80;;;;;;4191387;28;20086;-65
2022/06/22 08:29:19;;;;;;;3.58;1.33;;;21.80;69.90;;;;;;4191620;28;20861;-63
2022/06/22 08:31:20;;;;;;;2.20;1.30;;;22.20;68.50;;;;;;4191420;28;20779;-62
2022/06/22 08:33:38;;;;;;;3.95;1.20;;;22.50;67.90;;;;;;4191651;28;20469;-63
2022/06/22 08:35:45;;;;;;;1.42;1.23;;;22.60;67.20;;;;;;4191261;28;20457;-65
2022/06/22 08:38:25;;;;;;;1.27;1.05;;;22.50;67.40;;;;;;4191845;28;20032;-69
2022/06/22 08:40:35;;;;;;;5.80;1.00;;;22.40;68.10;;;;;;4191886;28;20033;-64
2022/06/22 08:43:05;;;;;;;2.95;1.05;;;22.40;67.40;;;;;;4190495;28;20028;-63
2022/06/22 08:45:18;;;;;;;1.55;0.60;;;22.50;67.90;;;;;;4192103;28;20090;-64
2022/06/22 08:47:34;;;;;;;2.40;1.30;;;22.60;67.50;;;;;;4190383;28;20024;-64
2022/06/22 08:50:12;;;;;;;5.53;1.33;;;22.80;67.10;;;;;;4191869;28;20106;-66
2022/06/22 08:52:34;;;;;;;5.80;1.67;;;22.50;67.00;;;;;;4190302;28;20028;-64
2022/06/22 08:55:15;;;;;;;4.72;1.35;;;22.20;67.70;;;;;;4191833;28;20108;-64
2022/06/22 08:57:55;;;;;;;10.48;2.72;;;21.80;68.50;;;;;;4189674;28;20061;-69
2022/06/22 08:59:59;;;;;;;5.75;1.10;;;21.60;68.60;;;;;;4155351;28;20394;-67
2022/06/22 09:02:38;;;;;;;5.38;0.75;;;22.00;68.40;;;;;;4156341;28;20041;-69
2022/06/22 09:05:05;;;;;;;9.60;1.30;;;22.30;66.80;;;;;;4163901;28;20651;-66
2022/06/22 09:07:44;;;;;;;25.63;3.75;;;22.10;67.10;;;;;;4185735;28;20090;-64
2022/06/22 09:10:29;;;;;;;2.55;0.70;;;22.00;66.80;;;;;;4189178;28;20048;-65
2022/06/22 09:12:55;;;;;;;9.02;2.08;;;22.10;66.60;;;;;;4171185;28;20045;-69
2022/06/22 09:14:56;;;;;;;7.22;1.02;;;22.10;66.40;;;;;;4191404;28;20476;-67
2022/06/22 09:17:16;;;;;;;3.03;0.70;;;21.90;66.20;;;;;;4190647;28;20403;-72
2022/06/22 09:19:23;;;;;;;4.95;1.13;;;22.10;66.10;;;;;;4191575;28;20086;-67
2022/06/22 09:21:46;;;;;;;2.17;0.60;;;22.30;65.60;;;;;;4190550;28;20086;-63
2022/06/22 09:24:17;;;;;;;7.07;0.93;;;22.40;65.60;;;;;;4190785;28;20021;-62
2022/06/22 09:26:33;;;;;;;0.85;0.65;;;22.60;65.40;;;;;;4188921;28;20094;-66
2022/06/22 09:28:45;;;;;;;1.48;0.52;;;22.90;65.00;;;;;;4191083;28;20032;-66
2022/06/22 09:30:52;;;;;;;9.23;1.63;;;23.10;64.80;;;;;;4189239;28;20593;-67
2022/06/22 09:33:05;;;;;;;4.63;0.80;;;22.70;65.30;;;;;;4191632;28;20040;-65
2022/06/22 09:35:29;;;;;;;0.90;0.50;;;22.70;65.30;;;;;;4189742;28;20044;-64
2022/06/22 09:38:18;;;;;;;1.88;0.75;;;22.80;65.20;;;;;;4191354;28;20604;-69
2022/06/22 09:40:39;;;;;;;1.08;0.65;;;23.00;65.00;;;;;;4190352;28;20040;-66
2022/06/22 09:43:41;;;;;;;4.07;1.15;;;22.80;65.00;;;;;;4190020;28;20024;-64
2022/06/22 09:46:01;;;;;;;4.38;0.80;;;22.60;65.30;;;;;;4191188;28;20110;-68
2022/06/22 09:48:34;;;;;;;6.30;1.15;;;22.60;64.20;;;;;;4189960;28;20927;-67
2022/06/22 09:51:10;;;;;;;1.20;0.50;;;22.50;64.60;;;;;;4191067;28;20123;-67
2022/06/22 09:53:13;;;;;;;9.25;1.15;;;22.40;64.00;;;;;;4188256;28;20066;-72
2022/06/22 09:58:20;;;;;;;3.20;0.63;;;22.30;64.30;;;;;;4189938;28;20090;-64
2022/06/22 10:00:31;;;;;;;2.22;0.80;;;22.40;64.30;;;;;;4188186;28;20485;-70
2022/06/22 10:03:04;;;;;;;6.57;0.60;;;22.60;64.50;;;;;;4189847;28;20078;-65
2022/06/22 10:05:27;;;;;;;6.75;0.45;;;22.90;64.40;;;;;;4188751;28;20457;-67
2022/06/22 10:07:49;;;;;;;2.78;0.57;;;23.00;64.30;;;;;;4190879;28;20127;-67
2022/06/22 10:10:14;;;;;;;4.78;0.88;;;23.10;63.80;;;;;;4189169;28;20091;-63
2022/06/22 10:12:48;;;;;;;5.15;0.65;;;23.10;64.00;;;;;;4190020;28;20024;-64
2022/06/22 10:15:23;;;;;;;7.38;0.88;;;23.20;63.50;;;;;;4188992;28;20094;-64
2022/06/22 10:18:15;;;;;;;2.30;1.27;;;23.30;63.30;;;;;;4189263;28;20044;-65
2022/06/22 10:20:25;;;;;;;5.78;0.95;;;23.20;63.10;;;;;;4173018;28;20074;-64
2022/06/22 10:22:54;;;;;;;2.35;0.77;;;22.70;63.70;;;;;;4188955;28;20040;-66
2022/06/22 10:25:17;;;;;;;4.45;0.80;;;22.90;63.10;;;;;;4190662;28;20110;-64
2022/06/22 10:27:30;;;;;;;4.72;0.70;;;23.00;62.70;;;;;;4188873;28;20086;-64
2022/06/22 10:29:57;;;;;;;10.52;0.70;;;23.10;63.10;;;;;;4190316;28;20449;-70
2022/06/22 10:32:33;;;;;;;1.05;0.50;;;23.00;62.70;;;;;;4188945;28;20047;-64
2022/06/22 10:35:02;;;;;;;0.90;0.60;;;23.00;62.80;;;;;;4190208;28;20040;-65
2022/06/22 10:37:42;;;;;;;1.52;0.60;;;22.90;62.90;;;;;;4185347;28;20488;-65
2022/06/22 10:39:58;;;;;;;1.35;0.60;;;22.90;63.30;;;;;;4188304;28;20443;-64
2022/06/22 10:45:10;;;;;;;2.80;0.80;;;23.10;63.50;;;;;;4188849;28;20180;-63
2022/06/22 10:47:59;;;;;;;5.85;1.13;;;23.20;62.70;;;;;;4189054;28;20128;-63
2022/06/22 10:50:50;;;;;;;4.05;0.40;;;23.00;60.80;;;;;;4184083;28;20071;-66
2022/06/22 10:52:59;;;;;;;4.20;0.80;;;22.80;61.90;;;;;;4170956;28;20093;-67
2022/06/22 10:55:13;;;;;;;1.48;0.57;;;22.70;62.70;;;;;;4189892;28;20036;-63
2022/06/22 10:58:10;;;;;;;1.98;0.45;;;22.90;63.10;;;;;;4189170;28;20037;-70
2022/06/22 11:00:15;;;;;;;2.97;0.55;;;23.10;62.80;;;;;;4154101;28;20508;-63
2022/06/22 11:02:43;;;;;;;3.88;0.60;;;23.30;63.50;;;;;;4179391;28;20424;-64
2022/06/22 11:04:56;;;;;;;3.05;0.40;;;23.30;62.40;;;;;;4189639;28;20040;-62
2022/06/22 11:07:35;;;;;;;0.68;0.57;;;23.30;62.60;;;;;;4189930;28;20101;-63
2022/06/22 11:09:50;;;;;;;1.95;0.50;;;23.30;62.10;;;;;;4189058;28;20025;-62
2022/06/22 11:11:57;;;;;;;3.47;0.40;;;23.30;62.10;;;;;;4190367;28;20082;-63
2022/06/22 11:14:16;;;;;;;6.85;0.70;;;23.30;62.20;;;;;;4189056;28;20028;-64
2022/06/22 11:16:39;;;;;;;5.07;0.73;;;23.20;60.80;;;;;;4189846;28;20070;-63
2022/06/22 11:19:01;;;;;;;3.92;0.68;;;23.20;60.80;;;;;;4187278;28;20102;-62
2022/06/22 11:21:26;;;;;;;3.78;0.70;;;23.20;60.80;;;;;;4189955;28;20048;-62
2022/06/22 11:23:46;;;;;;;2.60;0.30;;;23.20;60.60;;;;;;4188632;28;20105;-63
2022/06/22 11:31:37;;;;;;;5.32;0.80;;;23.30;60.40;;;;;;4189085;28;20439;-63
2022/06/22 11:33:49;;;;;;;8.40;2.25;;;23.10;60.80;;;;;;4190346;28;20074;-64
2022/06/22 11:36:17;;;;;;;2.22;0.60;;;23.10;61.60;;;;;;4187602;28;20048;-64
2022/06/22 11:38:24;;;;;;;2.13;0.45;;;23.10;61.80;;;;;;4190429;28;20037;-63
2022/06/22 11:40:30;;;;;;;3.22;0.63;;;23.20;61.10;;;;;;4188423;28;20098;-63
2022/06/22 11:43:06;;;;;;;1.33;0.43;;;23.30;61.70;;;;;;4189559;28;20036;-65
2022/06/22 11:47:58;;;;;;;3.88;0.50;;;23.50;61.70;;;;;;4186068;28;20118;-68
2022/06/22 11:50:25;;;;;;;9.18;1.38;;;23.40;61.20;;;;;;4191576;28;20032;-64
2022/06/22 11:52:51;;;;;;;7.43;1.08;;;23.40;60.60;;;;;;4191992;28;20140;-63
2022/06/22 11:55:23;;;;;;;5.32;0.40;;;23.30;60.70;;;;;;4192778;28;20078;-68
2022/06/22 11:57:53;;;;;;;4.13;1.02;;;23.30;61.20;;;;;;4191220;28;20110;-63
2022/06/22 12:00:12;;;;;;;;;;;23.30;60.90;;;;;;4193107;28;20040;-69